AIRPORT_AIRPORT_METAR
METAR FOR GLRB
ADDS - METARS form results

(2342 UTC 30 November 2020)
Data provider http://aviationweather.gov/metar/data/
 
METAR text: GLRB 302330Z 00000KT 9999 BKN014 FEW024CB 26/25 Q1012 NOSIG RMK CB/SW-W
Conditions at: GLRB (MONROVIA/ROBERTS, LR) observed 2330 UTC 30 November 2020
Temperature: 26.0°C (79°F)
Dewpoint: 25.0°C (77°F) [RH = 94%]
Pressure (altimeter): 29.88 inches Hg (1012.0 mb)
Winds: calm
Visibility: 6 or more miles (10+ km)
Ceiling: 1400 feet AGL
Clouds: broken clouds at 1400 feet AGL
few clouds at 2400 feet AGL
Weather: no significant weather observed at this time

METAR text: GLRB 302300Z 00000KT 9999 BKN014 FEW024CB 26/25 Q1012 NOSIG RMK CB/SW-W
Conditions at: GLRB (MONROVIA/ROBERTS, LR) observed 2300 UTC 30 November 2020
Temperature: 26.0°C (79°F)
Dewpoint: 25.0°C (77°F) [RH = 94%]
Pressure (altimeter): 29.88 inches Hg (1012.0 mb)
Winds: calm
Visibility: 6 or more miles (10+ km)
Ceiling: 1400 feet AGL
Clouds: broken clouds at 1400 feet AGL
few clouds at 2400 feet AGL
Weather: no significant weather observed at this time

 AIRPORT_AIRPORT_MAP

 AIRPORT_RUNWAY_INFO
AIRPORT_RUNWAY 04 AIRPORT_RUNWAY_LENGTH 11000 ft AIRPORT_RUNWAY_WIDTH 150 ft
AIRPORT_RUNWAY_ELEVATION 29 ft AIRPORT_RUNWAY_THRESHOLD 0 ft AIRPORT_RUNWAY_HEADING 31
AIRPORT_RUNWAY 22 AIRPORT_RUNWAY_LENGTH 11000 ft AIRPORT_RUNWAY_WIDTH 150 ft
AIRPORT_RUNWAY_ELEVATION 25 ft AIRPORT_RUNWAY_THRESHOLD 1200 ft AIRPORT_RUNWAY_HEADING 211

 AIRPORT_AIRPORT_FREQUENCIES
AIRPORT_AIRPORT_NAVAIDS_TYPE A/G AIRPORT_AIRPORT_NAVAIDS_NAME A/G VOICE AIRPORT_AIRPORT_NAVAIDS_FREQ 345.2 MHZ
AIRPORT_AIRPORT_NAVAIDS_TYPE APP AIRPORT_AIRPORT_NAVAIDS_NAME ROBERTS AP AIRPORT_AIRPORT_NAVAIDS_FREQ 124.5 MHZ
AIRPORT_AIRPORT_NAVAIDS_TYPE GND AIRPORT_AIRPORT_NAVAIDS_NAME GND AIRPORT_AIRPORT_NAVAIDS_FREQ 121.9 MHZ
AIRPORT_AIRPORT_NAVAIDS_TYPE TWR AIRPORT_AIRPORT_NAVAIDS_NAME ROBERTS TW AIRPORT_AIRPORT_NAVAIDS_FREQ 118.3 MHZ

 AIRPORT_AIRPORT_NAVAIDS
AIRPORT_AIRPORT_NAVAIDS_TYPE NDB AIRPORT_AIRPORT_NAVAIDS_NAME Monrovia Roberts AIRPORT_AIRPORT_NAVAIDS_FREQ 263 KHZ
AIRPORT_AIRPORT_NAVAIDS_TYPE NDB AIRPORT_AIRPORT_NAVAIDS_NAME Monrovia Roberts AIRPORT_AIRPORT_NAVAIDS_FREQ 372 KHZ
AIRPORT_AIRPORT_NAVAIDS_TYPE VOR-DME AIRPORT_AIRPORT_NAVAIDS_NAME Monrovia Roberts AIRPORT_AIRPORT_NAVAIDS_FREQ 113800 KHZ



Copyright © 2005-2020 - Virtuel Air Alsace - Tous droits réservés